»·PEaware :: AAL243 KLAX-KLAS

AAL243 :: KLAX-KLAS

FLIGHT INFORMATION

Flight Status: Arrived
Operator:
American Airlines
More flights by this operator :: More flights under this callsign
Pilot: Tatianna C. (7783)
Aircraft: AIRBUS A320
(A320)
More flights by this aircraft type
Origin: KLAX Los Angeles Intl
United States
Destination: KLAS McCarran Intl
United States
More flights between these airports :: More routes between these airports
Route: OSHNN8 MISEN KEPEC6
File this flight plan on PilotEdge
Remarks:
Altitude:
(Current/Filed)
33,000ft
Speed:
(Current/Filed)
460kts
Departed: 02-Nov-17 06:55 PM
Arrived: 02-Nov-17 07:40 PM
Distance/Time
Traveled:
206nm/0:45
Distance/Time
To Go:
Arrived

Flight Plot

Page will automatically refresh every two minutes.

Flight plan parsing failed; only flown route is shown


Map Options




Map Legend


Flown Route
Filed Route
Departure Airport
Arrival Airport
Navaid (VOR, NDB)
Fix

Horizontal Profiles

Position Reports

Time Latitude Longitude Heading Altitude Ground
Speed
02-Nov-17 18:31 33.941067 -118.404995 83 112ft 0kts
02-Nov-17 18:32 33.941067 -118.404995 83 112ft 0kts
02-Nov-17 18:33 33.941067 -118.404995 83 112ft 0kts
02-Nov-17 18:34 33.941067 -118.404995 83 112ft 0kts
02-Nov-17 18:35 33.941067 -118.404995 83 112ft 0kts
02-Nov-17 18:36 33.941067 -118.404995 83 112ft 0kts
02-Nov-17 18:37 33.941067 -118.404995 83 112ft 0kts
02-Nov-17 18:38 33.941067 -118.404995 83 112ft 0kts
02-Nov-17 18:39 33.941067 -118.404995 83 112ft 0kts
02-Nov-17 18:40 33.941067 -118.404995 83 112ft 0kts
02-Nov-17 18:41 33.941067 -118.404995 83 112ft 0kts
02-Nov-17 18:42 33.941067 -118.404995 83 112ft 0kts
02-Nov-17 18:43 33.941067 -118.404995 83 112ft 0kts
02-Nov-17 18:44 33.941067 -118.404995 83 112ft 0kts
02-Nov-17 18:45 33.941067 -118.404995 83 112ft 0kts
02-Nov-17 18:46 33.941067 -118.404995 83 112ft 0kts
02-Nov-17 18:47 33.941033 -118.405315 83 112ft 2kts
02-Nov-17 18:48 33.941431 -118.405686 172 112ft 1kts
02-Nov-17 18:49 33.941445 -118.405688 171 112ft 0kts
02-Nov-17 18:50 33.941045 -118.405617 172 112ft 5kts
02-Nov-17 18:51 33.938306 -118.404591 81 112ft 13kts
02-Nov-17 18:52 33.938924 -118.398683 84 112ft 22kts
02-Nov-17 18:53 33.939654 -118.391253 83 112ft 22kts
02-Nov-17 18:54 33.940269 -118.385066 81 112ft 17kts
02-Nov-17 18:55 33.940634 -118.381529 83 112ft 0kts
02-Nov-17 18:56 33.940669 -118.381088 85 112ft 2kts
02-Nov-17 18:57 33.940674 -118.380675 101 112ft 0kts
02-Nov-17 18:58 33.940674 -118.380675 101 112ft 0kts
02-Nov-17 18:59 33.939710 -118.380768 263 112ft 2kts
02-Nov-17 19:00 33.938710 -118.390761 263 112ft 137kts
02-Nov-17 19:01 33.932822 -118.449118 252 2818ft 209kts
02-Nov-17 19:02 33.891667 -118.513024 230 5823ft 266kts
02-Nov-17 19:03 33.830417 -118.557216 172 9077ft 284kts
02-Nov-17 19:04 33.752949 -118.536072 171 11723ft 310kts
02-Nov-17 19:05 33.680934 -118.469111 113 12981ft 390kts
02-Nov-17 19:06 33.645933 -118.342782 102 14985ft 410kts
02-Nov-17 19:07 33.680387 -118.214607 45 16746ft 432kts
02-Nov-17 19:08 33.765330 -118.110792 44 18421ft 445kts
02-Nov-17 19:09 33.851666 -118.003344 45 20070ft 454kts
02-Nov-17 19:10 33.939846 -117.893091 45 21562ft 463kts
02-Nov-17 19:11 34.028939 -117.781156 45 22911ft 472kts
02-Nov-17 19:12 34.119559 -117.667071 45 24143ft 480kts
02-Nov-17 19:13 34.210988 -117.551540 45 25203ft 489kts
02-Nov-17 19:14 34.305431 -117.431791 44 26232ft 497kts
02-Nov-17 19:15 34.400631 -117.310664 45 27157ft 505kts
02-Nov-17 19:16 34.497041 -117.187554 44 28118ft 508kts
02-Nov-17 19:17 34.593588 -117.063839 44 29219ft 508kts
02-Nov-17 19:18 34.690519 -116.939144 44 30295ft 507kts
02-Nov-17 19:19 34.786877 -116.814762 44 29749ft 510kts
02-Nov-17 19:20 34.883437 -116.689642 44 28503ft 508kts
02-Nov-17 19:21 34.979766 -116.564376 45 27238ft 508kts
02-Nov-17 19:22 35.075444 -116.439489 45 24995ft 495kts
02-Nov-17 19:23 35.175738 -116.333864 36 24146ft 478kts
02-Nov-17 19:24 35.277094 -116.228582 47 24133ft 485kts
02-Nov-17 19:25 35.363758 -116.105350 47 23661ft 460kts
02-Nov-17 19:26 35.446065 -115.993324 47 20026ft 431kts
02-Nov-17 19:27 35.525638 -115.885010 47 17667ft 429kts
02-Nov-17 19:28 35.604503 -115.777405 47 15277ft 422kts
02-Nov-17 19:29 35.682017 -115.671641 46 13158ft 409kts
02-Nov-17 19:30 35.765630 -115.579259 17 13069ft 405kts
02-Nov-17 19:31 35.875718 -115.568759 359 13038ft 400kts
02-Nov-17 19:32 35.977445 -115.533796 53 12933ft 375kts
02-Nov-17 19:33 36.014514 -115.427144 69 11676ft 306kts
02-Nov-17 19:34 36.028114 -115.334920 97 10518ft 266kts
02-Nov-17 19:35 36.021736 -115.246130 96 9500ft 259kts
02-Nov-17 19:36 36.015672 -115.158359 96 8346ft 256kts
02-Nov-17 19:37 36.009236 -115.071379 96 7233ft 252kts
02-Nov-17 19:38 36.003142 -114.987242 97 6402ft 241kts
02-Nov-17 19:39 36.015756 -114.912590 26 5692ft 231kts
02-Nov-17 19:40 36.068571 -114.924876 290 4331ft 192kts
02-Nov-17 19:41 36.073830 -114.980882 265 4004ft 150kts
02-Nov-17 19:42 36.073817 -115.034222 267 3584ft 160kts
02-Nov-17 19:43 36.073646 -115.085684 267 2814ft 147kts
02-Nov-17 19:44 36.073653 -115.134773 267 2120ft 124kts
02-Nov-17 19:45 36.074763 -115.145979 302 2120ft 3kts
02-Nov-17 19:46 36.077632 -115.146397 35 2120ft 13kts
02-Nov-17 19:47 36.077512 -115.142173 92 2120ft 12kts
02-Nov-17 19:48 36.077834 -115.137936 12 2120ft 12kts
02-Nov-17 19:49 36.080509 -115.138278 303 2120ft 4kts
02-Nov-17 19:50 36.080734 -115.138569 314 2120ft 0kts
02-Nov-17 19:51 36.080734 -115.138569 314 2120ft 0kts
02-Nov-17 19:52 36.080734 -115.138569 314 2120ft 0kts
02-Nov-17 19:53 36.080734 -115.138569 314 2120ft 0kts
02-Nov-17 19:54 36.080734 -115.138569 314 2120ft 0kts
02-Nov-17 19:55 36.080734 -115.138569 314 2120ft 0kts
02-Nov-17 19:56 36.080734 -115.138569 314 2120ft 0kts

Navigation Log

Ident Type
Flight plan parsing failed, navigation log unavailable